Time;durP1;ratioP1;P1;durP2;ratioP2;P2;SDS_P1;SDS_P2;PMS_P1;PMS_P2;Temp;Humidity;BMP_temperature;BMP_pressure;BME280_temperature;BME280_humidity;BME280_pressure;Samples;Min_cycle;Max_cycle;Signal;HPM_P1;HPM_P2
2023/12/29 00:07:24;;;;;;;40.2;20.6;;;;;;;6.47;83.69;;;;;
2023/12/29 00:17:24;;;;;;;32.5;18.5;;;;;;;6.42;83.84;;;;;
2023/12/29 00:28:24;;;;;;;32.5;18.5;;;;;;;6.42;83.47;;;;;
2023/12/29 00:38:24;;;;;;;32.5;18.5;;;;;;;6.45;83.29;;;;;
2023/12/29 00:48:24;;;;;;;36;21.8;;;;;;;6.51;83.23;;;;;
2023/12/29 00:58:24;;;;;;;36;21.8;;;;;;;6.36;83.14;;;;;
2023/12/29 01:09:24;;;;;;;36;21.8;;;;;;;5.95;83.78;;;;;
2023/12/29 01:19:24;;;;;;;28.8;16.5;;;;;;;6.02;82.83;;;;;
2023/12/29 01:29:24;;;;;;;28.8;16.5;;;;;;;5.69;83.8;;;;;
2023/12/29 01:40:24;;;;;;;28.8;16.5;;;;;;;5.61;84.44;;;;;
2023/12/29 01:51:24;;;;;;;32;19.3;;;;;;;5.63;85.43;;;;;
2023/12/29 02:02:24;;;;;;;32;19.3;;;;;;;5.91;85.1;;;;;
2023/12/29 02:12:24;;;;;;;31.4;19.4;;;;;;;6.02;84.87;;;;;
2023/12/29 02:23:24;;;;;;;31.4;19.4;;;;;;;5.94;84.81;;;;;
2023/12/29 02:34:24;;;;;;;31.4;19.4;;;;;;;5.89;84.75;;;;;
2023/12/29 02:44:24;;;;;;;29.1;15.9;;;;;;;6.41;84.74;;;;;
2023/12/29 02:55:24;;;;;;;29.1;15.9;;;;;;;6.99;82.38;;;;;
2023/12/29 03:06:24;;;;;;;29.1;15.9;;;;;;;7.37;80.02;;;;;
2023/12/29 03:17:24;;;;;;;5;2.6;;;;;;;7.62;78.07;;;;;
2023/12/29 03:27:24;;;;;;;5;2.6;;;;;;;7.7;76.63;;;;;
2023/12/29 03:37:24;;;;;;;5;2.6;;;;;;;7.75;73.83;;;;;
2023/12/29 03:47:24;;;;;;;6.2;2.6;;;;;;;7.87;71.54;;;;;
2023/12/29 03:58:24;;;;;;;6.2;2.6;;;;;;;7.96;69.67;;;;;
2023/12/29 04:09:24;;;;;;;6.2;2.6;;;;;;;8.05;68.61;;;;;
2023/12/29 04:19:24;;;;;;;4.8;2.2;;;;;;;8.06;68.33;;;;;
2023/12/29 04:30:24;;;;;;;4.8;2.2;;;;;;;8.12;67.78;;;;;
2023/12/29 04:41:24;;;;;;;5.2;2.2;;;;;;;8.41;67.38;;;;;
2023/12/29 04:52:24;;;;;;;5.2;2.2;;;;;;;8.54;66.63;;;;;
2023/12/29 05:02:24;;;;;;;5.2;2.2;;;;;;;8.64;66.89;;;;;
2023/12/29 05:12:24;;;;;;;3.7;2.2;;;;;;;8.86;65.52;;;;;
2023/12/29 05:22:24;;;;;;;3.7;2.2;;;;;;;8.86;65.98;;;;;
2023/12/29 05:33:24;;;;;;;3.7;2.2;;;;;;;8.96;66.23;;;;;
2023/12/29 05:44:24;;;;;;;5.2;2.5;;;;;;;9.11;66.24;;;;;
2023/12/29 05:54:24;;;;;;;5.2;2.5;;;;;;;8.88;67.26;;;;;
2023/12/29 06:04:24;;;;;;;5.2;2.5;;;;;;;8.68;68.36;;;;;
2023/12/29 06:15:24;;;;;;;13.4;7.9;;;;;;;8.45;69.69;;;;;
2023/12/29 06:25:24;;;;;;;13.4;7.9;;;;;;;8.3;70.19;;;;;
2023/12/29 06:35:24;;;;;;;13.4;7.9;;;;;;;8.26;71.37;;;;;
2023/12/29 06:45:24;;;;;;;9.4;5.7;;;;;;;8.51;71.69;;;;;
2023/12/29 06:56:24;;;;;;;9.4;5.7;;;;;;;8.66;72.09;;;;;
2023/12/29 07:07:24;;;;;;;9.4;5.7;;;;;;;8.9;73.51;;;;;
2023/12/29 07:17:24;;;;;;;7.4;4;;;;;;;9.44;73.46;;;;;
2023/12/29 07:27:24;;;;;;;7.4;4;;;;;;;9.7;73.54;;;;;
2023/12/29 07:38:24;;;;;;;7.4;4;;;;;;;9.89;73.39;;;;;
2023/12/29 07:48:24;;;;;;;5.6;2.1;;;;;;;9.78;73.35;;;;;
2023/12/29 07:58:24;;;;;;;5.6;2.1;;;;;;;9.63;73.65;;;;;
2023/12/29 08:08:24;;;;;;;5.6;2.1;;;;;;;9.77;73.24;;;;;
2023/12/29 08:18:24;;;;;;;3.6;1.8;;;;;;;9.86;72.09;;;;;
2023/12/29 08:29:25;;;;;;;3.6;1.8;;;;;;;10.15;70.98;;;;;
2023/12/29 08:40:24;;;;;;;5.4;2.2;;;;;;;10.3;70.02;;;;;
2023/12/29 08:50:24;;;;;;;5.4;2.2;;;;;;;10.37;68.56;;;;;
2023/12/29 09:00:24;;;;;;;5.4;2.2;;;;;;;10.65;68.02;;;;;
2023/12/29 09:11:24;;;;;;;4.7;2.4;;;;;;;10.83;66.89;;;;;
2023/12/29 09:21:24;;;;;;;4.7;2.4;;;;;;;11.27;64.09;;;;;
2023/12/29 09:31:25;;;;;;;4.7;2.4;;;;;;;11.55;63.35;;;;;
2023/12/29 09:42:25;;;;;;;4.2;2.2;;;;;;;11.59;63.44;;;;;
2023/12/29 09:53:24;;;;;;;4.2;2.2;;;;;;;11.5;61.75;;;;;
2023/12/29 09:56:11;;;;;;;4.2;2.2;;;;;;;11.51;62.85;;;;;
2023/12/29 10:02:03;;;;;;;4.2;2.2;;;;;;;11.56;62.29;;;;;
2023/12/29 10:12:02;;;;;;;6.4;1.9;;;;;;;11.5;62.58;;;;;
2023/12/29 10:22:03;;;;;;;6.4;1.9;;;;;;;11.63;61.93;;;;;
2023/12/29 10:33:03;;;;;;;6.4;1.9;;;;;;;11.81;59.77;;;;;
2023/12/29 10:43:06;;;;;;;3.7;1.6;;;;;;;11.95;60.24;;;;;
2023/12/29 10:53:02;;;;;;;3.7;1.6;;;;;;;12.13;58.92;;;;;
2023/12/29 11:04:02;;;;;;;3.7;1.6;;;;;;;11.97;59.04;;;;;
2023/12/29 11:14:03;;;;;;;3.3;1.7;;;;;;;12.16;60.34;;;;;
2023/12/29 11:25:02;;;;;;;3.3;1.7;;;;;;;12.21;60.38;;;;;
2023/12/29 11:36:03;;;;;;;3.3;1.7;;;;;;;12.28;59.57;;;;;
2023/12/29 11:47:02;;;;;;;4.7;2.3;;;;;;;12.25;59.41;;;;;
2023/12/29 11:58:04;;;;;;;4.7;2.3;;;;;;;12.26;60.03;;;;;
2023/12/29 12:09:02;;;;;;;4.7;2.3;;;;;;;12.05;59.67;;;;;
2023/12/29 12:19:02;;;;;;;5.1;2.5;;;;;;;12.01;60.15;;;;;
2023/12/29 12:30:02;;;;;;;5.1;2.5;;;;;;;11.99;60.97;;;;;
2023/12/29 12:40:03;;;;;;;5.1;2.5;;;;;;;11.93;60.57;;;;;
2023/12/29 12:50:02;;;;;;;4.5;2.8;;;;;;;12.14;61.13;;;;;
2023/12/29 13:01:02;;;;;;;4.5;2.8;;;;;;;12.01;60.12;;;;;
2023/12/29 13:12:02;;;;;;;4.8;3.1;;;;;;;11.9;60.58;;;;;
2023/12/29 13:22:03;;;;;;;4.8;3.1;;;;;;;11.81;60.96;;;;;
2023/12/29 13:33:02;;;;;;;4.8;3.1;;;;;;;11.61;60.58;;;;;
2023/12/29 13:44:03;;;;;;;5.7;3.4;;;;;;;11.39;59.63;;;;;
2023/12/29 13:54:03;;;;;;;5.7;3.4;;;;;;;11.15;60.01;;;;;
2023/12/29 14:05:02;;;;;;;5.7;3.4;;;;;;;10.9;60.98;;;;;
2023/12/29 14:16:02;;;;;;;4.7;2.5;;;;;;;10.66;61.98;;;;;
2023/12/29 14:26:02;;;;;;;4.7;2.5;;;;;;;10.35;62.45;;;;;
2023/12/29 14:37:02;;;;;;;4.7;2.5;;;;;;;10.02;62.85;;;;;
2023/12/29 14:47:02;;;;;;;7.7;3.1;;;;;;;9.77;63.49;;;;;
2023/12/29 14:58:02;;;;;;;7.7;3.1;;;;;;;9.33;64.57;;;;;
2023/12/29 15:09:03;;;;;;;7.7;3.1;;;;;;;8.97;66.74;;;;;
2023/12/29 15:19:03;;;;;;;7.7;3.8;;;;;;;8.74;68.09;;;;;
2023/12/29 15:30:02;;;;;;;7.7;3.8;;;;;;;8.38;69.76;;;;;
2023/12/29 15:40:03;;;;;;;9.3;5.4;;;;;;;8.29;70.46;;;;;
2023/12/29 15:51:02;;;;;;;9.3;5.4;;;;;;;8.06;71.9;;;;;
2023/12/29 16:02:02;;;;;;;9.3;5.4;;;;;;;7.95;72.13;;;;;
2023/12/29 16:12:03;;;;;;;14.3;7.3;;;;;;;7.93;72.23;;;;;
2023/12/29 16:23:02;;;;;;;14.3;7.3;;;;;;;7.98;72.21;;;;;
2023/12/29 16:34:02;;;;;;;14.3;7.3;;;;;;;8.01;72.14;;;;;
2023/12/29 16:44:02;;;;;;;9.2;5;;;;;;;8.12;71.97;;;;;
2023/12/29 16:54:04;;;;;;;9.2;5;;;;;;;8.19;71.7;;;;;
2023/12/29 17:05:03;;;;;;;9.2;5;;;;;;;8.09;72.25;;;;;
2023/12/29 17:16:04;;;;;;;8.5;4.8;;;;;;;8.12;72.53;;;;;
2023/12/29 17:27:02;;;;;;;8.5;4.8;;;;;;;8.39;72;;;;;
2023/12/29 17:37:02;;;;;;;8.5;4.8;;;;;;;8.66;70.82;;;;;
2023/12/29 17:47:03;;;;;;;9.5;4.7;;;;;;;8.87;70.42;;;;;
2023/12/29 17:58:02;;;;;;;9.5;4.7;;;;;;;9.28;69.84;;;;;
2023/12/29 18:09:02;;;;;;;9.5;4.7;;;;;;;9.54;68.77;;;;;
2023/12/29 18:19:02;;;;;;;7.2;3.9;;;;;;;9.64;68.63;;;;;
2023/12/29 18:29:02;;;;;;;7.2;3.9;;;;;;;9.57;68.66;;;;;
2023/12/29 18:40:03;;;;;;;8.8;3.9;;;;;;;9.33;69.03;;;;;
2023/12/29 18:50:02;;;;;;;8.8;3.9;;;;;;;9.23;69.35;;;;;
2023/12/29 19:01:03;;;;;;;8.8;3.9;;;;;;;9.02;70.01;;;;;
2023/12/29 19:11:02;;;;;;;9.1;4.8;;;;;;;8.86;70.44;;;;;
2023/12/29 19:21:02;;;;;;;9.1;4.8;;;;;;;8.79;70.54;;;;;
2023/12/29 19:32:03;;;;;;;9.1;4.8;;;;;;;8.57;71.19;;;;;
2023/12/29 19:42:03;;;;;;;7.6;3.9;;;;;;;8.41;71.76;;;;;
2023/12/29 19:52:03;;;;;;;7.6;3.9;;;;;;;8.35;72.07;;;;;
2023/12/29 20:02:03;;;;;;;7.6;3.9;;;;;;;8.39;71.97;;;;;
2023/12/29 20:12:02;;;;;;;8.2;3.6;;;;;;;8.69;71.19;;;;;
2023/12/29 20:23:02;;;;;;;8.2;3.6;;;;;;;9.04;69.8;;;;;
2023/12/29 20:34:02;;;;;;;8.2;3.6;;;;;;;9.29;69.39;;;;;
2023/12/29 20:45:03;;;;;;;5.8;3.3;;;;;;;9.45;69.17;;;;;
2023/12/29 20:55:04;;;;;;;5.8;3.3;;;;;;;9.49;69.17;;;;;
2023/12/29 21:05:05;;;;;;;5.8;3.3;;;;;;;9.41;69.62;;;;;
2023/12/29 21:16:02;;;;;;;8.7;3.6;;;;;;;9.33;69.02;;;;;
2023/12/29 21:27:02;;;;;;;8.7;3.6;;;;;;;9.23;68.85;;;;;
2023/12/29 21:37:03;;;;;;;8.7;3.6;;;;;;;9.21;68.81;;;;;
2023/12/29 21:48:02;;;;;;;5.4;3;;;;;;;9.2;68.57;;;;;
2023/12/29 21:58:02;;;;;;;5.4;3;;;;;;;9.08;68.9;;;;;
2023/12/29 22:08:03;;;;;;;5.4;3;;;;;;;9.2;68.31;;;;;
2023/12/29 22:19:05;;;;;;;5.9;3;;;;;;;9.28;67.95;;;;;
2023/12/29 22:29:02;;;;;;;5.9;3;;;;;;;9.25;67.95;;;;;
2023/12/29 22:39:04;;;;;;;5.9;3;;;;;;;9.11;68.56;;;;;
2023/12/29 22:50:02;;;;;;;5.2;2.3;;;;;;;9.04;69.39;;;;;
2023/12/29 23:01:02;;;;;;;5.2;2.3;;;;;;;9.12;69.43;;;;;
2023/12/29 23:11:03;;;;;;;4.9;2.7;;;;;;;9.12;69.31;;;;;
2023/12/29 23:21:02;;;;;;;4.9;2.7;;;;;;;9;69.85;;;;;
2023/12/29 23:32:02;;;;;;;4.9;2.7;;;;;;;8.91;70.36;;;;;
2023/12/29 23:43:02;;;;;;;5.3;2.9;;;;;;;8.86;70.29;;;;;
2023/12/29 23:53:02;;;;;;;5.3;2.9;;;;;;;8.84;69.87;;;;;
